sensor_id;sensor_type;location;lat;lon;timestamp;P1;durP1;ratioP1;P2;durP2;ratioP2
28653;SDS011;24320;56.980;24.336;2022-08-19T00:02:00;13.65;;;9.05;;
28653;SDS011;24320;56.980;24.336;2022-08-19T00:04:32;16.10;;;9.48;;
28653;SDS011;24320;56.980;24.336;2022-08-19T00:07:06;14.80;;;8.68;;
28653;SDS011;24320;56.980;24.336;2022-08-19T00:09:33;26.30;;;9.65;;
28653;SDS011;24320;56.980;24.336;2022-08-19T00:12:00;18.42;;;8.75;;
28653;SDS011;24320;56.980;24.336;2022-08-19T00:14:28;17.08;;;9.10;;
28653;SDS011;24320;56.980;24.336;2022-08-19T00:16:58;16.73;;;9.05;;
28653;SDS011;24320;56.980;24.336;2022-08-19T00:19:25;20.30;;;8.75;;
28653;SDS011;24320;56.980;24.336;2022-08-19T00:21:53;13.65;;;8.85;;
28653;SDS011;24320;56.980;24.336;2022-08-19T00:24:20;18.92;;;9.20;;
28653;SDS011;24320;56.980;24.336;2022-08-19T00:26:48;14.15;;;8.68;;
28653;SDS011;24320;56.980;24.336;2022-08-19T00:29:17;20.20;;;8.80;;
28653;SDS011;24320;56.980;24.336;2022-08-19T00:31:46;18.65;;;9.00;;
28653;SDS011;24320;56.980;24.336;2022-08-19T00:34:15;16.30;;;8.68;;
28653;SDS011;24320;56.980;24.336;2022-08-19T00:36:42;14.48;;;8.55;;
28653;SDS011;24320;56.980;24.336;2022-08-19T00:39:10;13.48;;;8.27;;
28653;SDS011;24320;56.980;24.336;2022-08-19T00:41:39;15.07;;;8.90;;
28653;SDS011;24320;56.980;24.336;2022-08-19T00:44:10;18.13;;;8.82;;
28653;SDS011;24320;56.980;24.336;2022-08-19T00:46:52;15.23;;;8.20;;
28653;SDS011;24320;56.980;24.336;2022-08-19T00:52:04;20.65;;;8.27;;
28653;SDS011;24320;56.980;24.336;2022-08-19T00:54:35;12.88;;;8.52;;
28653;SDS011;24320;56.980;24.336;2022-08-19T00:57:04;12.52;;;8.65;;
28653;SDS011;24320;56.980;24.336;2022-08-19T00:59:34;13.60;;;9.30;;
28653;SDS011;24320;56.980;24.336;2022-08-19T01:02:25;15.25;;;9.20;;
28653;SDS011;24320;56.980;24.336;2022-08-19T01:04:53;17.40;;;8.85;;
28653;SDS011;24320;56.980;24.336;2022-08-19T01:07:20;14.93;;;8.82;;
28653;SDS011;24320;56.980;24.336;2022-08-19T01:09:49;17.58;;;9.00;;
28653;SDS011;24320;56.980;24.336;2022-08-19T01:12:16;14.35;;;8.80;;
28653;SDS011;24320;56.980;24.336;2022-08-19T01:14:43;15.15;;;8.65;;
28653;SDS011;24320;56.980;24.336;2022-08-19T01:17:12;17.50;;;8.50;;
28653;SDS011;24320;56.980;24.336;2022-08-19T01:19:41;16.73;;;9.13;;
28653;SDS011;24320;56.980;24.336;2022-08-19T01:24:55;13.32;;;8.52;;
28653;SDS011;24320;56.980;24.336;2022-08-19T01:27:24;13.98;;;9.27;;
28653;SDS011;24320;56.980;24.336;2022-08-19T01:29:54;16.17;;;8.85;;
28653;SDS011;24320;56.980;24.336;2022-08-19T01:32:22;14.55;;;8.32;;
28653;SDS011;24320;56.980;24.336;2022-08-19T01:34:59;11.85;;;8.20;;
28653;SDS011;24320;56.980;24.336;2022-08-19T01:37:30;15.52;;;8.63;;
28653;SDS011;24320;56.980;24.336;2022-08-19T01:40:16;12.85;;;8.98;;
28653;SDS011;24320;56.980;24.336;2022-08-19T01:42:49;23.50;;;9.07;;
28653;SDS011;24320;56.980;24.336;2022-08-19T01:45:17;11.38;;;8.05;;
28653;SDS011;24320;56.980;24.336;2022-08-19T01:47:46;14.57;;;9.02;;
28653;SDS011;24320;56.980;24.336;2022-08-19T01:50:27;15.23;;;8.40;;
28653;SDS011;24320;56.980;24.336;2022-08-19T01:52:56;12.77;;;7.85;;
28653;SDS011;24320;56.980;24.336;2022-08-19T01:55:32;14.18;;;8.40;;
28653;SDS011;24320;56.980;24.336;2022-08-19T01:58:06;18.42;;;8.50;;
28653;SDS011;24320;56.980;24.336;2022-08-19T02:00:37;12.63;;;8.27;;
28653;SDS011;24320;56.980;24.336;2022-08-19T02:05:58;16.58;;;9.13;;
28653;SDS011;24320;56.980;24.336;2022-08-19T02:08:52;15.10;;;8.43;;
28653;SDS011;24320;56.980;24.336;2022-08-19T02:11:32;15.57;;;9.00;;
28653;SDS011;24320;56.980;24.336;2022-08-19T02:14:03;12.63;;;8.32;;
28653;SDS011;24320;56.980;24.336;2022-08-19T02:18:59;17.55;;;8.52;;
28653;SDS011;24320;56.980;24.336;2022-08-19T02:21:27;19.23;;;8.85;;
28653;SDS011;24320;56.980;24.336;2022-08-19T02:23:54;11.95;;;8.05;;
28653;SDS011;24320;56.980;24.336;2022-08-19T02:26:22;16.23;;;8.30;;
28653;SDS011;24320;56.980;24.336;2022-08-19T02:28:49;17.92;;;8.43;;
28653;SDS011;24320;56.980;24.336;2022-08-19T02:31:18;16.45;;;8.18;;
28653;SDS011;24320;56.980;24.336;2022-08-19T02:33:48;15.85;;;8.90;;
28653;SDS011;24320;56.980;24.336;2022-08-19T02:36:16;12.50;;;8.60;;
28653;SDS011;24320;56.980;24.336;2022-08-19T02:38:46;13.43;;;8.38;;
28653;SDS011;24320;56.980;24.336;2022-08-19T02:41:21;17.70;;;8.90;;
28653;SDS011;24320;56.980;24.336;2022-08-19T02:43:54;19.02;;;8.63;;
28653;SDS011;24320;56.980;24.336;2022-08-19T02:46:45;15.87;;;8.63;;
28653;SDS011;24320;56.980;24.336;2022-08-19T02:49:13;17.85;;;8.55;;
28653;SDS011;24320;56.980;24.336;2022-08-19T02:51:43;14.93;;;8.60;;
28653;SDS011;24320;56.980;24.336;2022-08-19T02:54:12;16.15;;;8.18;;
28653;SDS011;24320;56.980;24.336;2022-08-19T02:56:41;12.23;;;8.07;;
28653;SDS011;24320;56.980;24.336;2022-08-19T02:59:10;18.17;;;8.65;;
28653;SDS011;24320;56.980;24.336;2022-08-19T03:01:38;17.52;;;8.20;;
28653;SDS011;24320;56.980;24.336;2022-08-19T03:04:08;17.07;;;8.50;;
28653;SDS011;24320;56.980;24.336;2022-08-19T03:06:40;17.77;;;8.23;;
28653;SDS011;24320;56.980;24.336;2022-08-19T03:11:43;12.48;;;8.32;;
28653;SDS011;24320;56.980;24.336;2022-08-19T03:14:13;14.20;;;8.82;;
28653;SDS011;24320;56.980;24.336;2022-08-19T03:16:42;13.15;;;8.25;;
28653;SDS011;24320;56.980;24.336;2022-08-19T03:19:17;14.52;;;8.70;;
28653;SDS011;24320;56.980;24.336;2022-08-19T03:21:45;14.20;;;8.50;;
28653;SDS011;24320;56.980;24.336;2022-08-19T03:24:13;16.00;;;8.30;;
28653;SDS011;24320;56.980;24.336;2022-08-19T03:26:42;17.65;;;8.25;;
28653;SDS011;24320;56.980;24.336;2022-08-19T03:29:18;13.18;;;7.85;;
28653;SDS011;24320;56.980;24.336;2022-08-19T03:31:56;11.13;;;8.05;;
28653;SDS011;24320;56.980;24.336;2022-08-19T03:34:25;18.33;;;7.75;;
28653;SDS011;24320;56.980;24.336;2022-08-19T03:36:54;16.33;;;7.68;;
28653;SDS011;24320;56.980;24.336;2022-08-19T03:39:23;12.23;;;8.38;;
28653;SDS011;24320;56.980;24.336;2022-08-19T03:41:51;17.02;;;7.72;;
28653;SDS011;24320;56.980;24.336;2022-08-19T03:44:43;13.07;;;7.78;;
28653;SDS011;24320;56.980;24.336;2022-08-19T03:47:11;14.60;;;8.10;;
28653;SDS011;24320;56.980;24.336;2022-08-19T03:49:42;13.38;;;8.68;;
28653;SDS011;24320;56.980;24.336;2022-08-19T03:52:10;16.65;;;8.40;;
28653;SDS011;24320;56.980;24.336;2022-08-19T03:54:37;17.92;;;7.65;;
28653;SDS011;24320;56.980;24.336;2022-08-19T03:57:05;13.77;;;7.65;;
28653;SDS011;24320;56.980;24.336;2022-08-19T03:59:34;11.85;;;7.68;;
28653;SDS011;24320;56.980;24.336;2022-08-19T04:02:05;10.80;;;7.35;;
28653;SDS011;24320;56.980;24.336;2022-08-19T04:04:41;11.63;;;7.40;;
28653;SDS011;24320;56.980;24.336;2022-08-19T04:07:10;10.38;;;6.80;;
28653;SDS011;24320;56.980;24.336;2022-08-19T04:09:41;9.82;;;7.43;;
28653;SDS011;24320;56.980;24.336;2022-08-19T04:12:09;10.57;;;6.38;;
28653;SDS011;24320;56.980;24.336;2022-08-19T04:14:36;11.68;;;7.10;;
28653;SDS011;24320;56.980;24.336;2022-08-19T04:17:03;9.55;;;6.65;;
28653;SDS011;24320;56.980;24.336;2022-08-19T04:19:34;18.88;;;7.43;;
28653;SDS011;24320;56.980;24.336;2022-08-19T04:22:01;9.18;;;6.47;;
28653;SDS011;24320;56.980;24.336;2022-08-19T04:24:29;13.25;;;6.03;;
28653;SDS011;24320;56.980;24.336;2022-08-19T04:26:56;10.57;;;6.93;;
28653;SDS011;24320;56.980;24.336;2022-08-19T04:29:26;15.00;;;6.60;;
28653;SDS011;24320;56.980;24.336;2022-08-19T04:32:02;16.52;;;6.70;;
28653;SDS011;24320;56.980;24.336;2022-08-19T04:34:35;8.70;;;6.03;;
28653;SDS011;24320;56.980;24.336;2022-08-19T04:37:23;10.95;;;6.30;;
28653;SDS011;24320;56.980;24.336;2022-08-19T04:39:50;10.38;;;6.13;;
28653;SDS011;24320;56.980;24.336;2022-08-19T04:42:36;12.43;;;6.80;;
28653;SDS011;24320;56.980;24.336;2022-08-19T04:45:08;12.43;;;6.70;;
28653;SDS011;24320;56.980;24.336;2022-08-19T04:47:40;13.02;;;6.50;;
28653;SDS011;24320;56.980;24.336;2022-08-19T04:50:13;9.98;;;6.38;;
28653;SDS011;24320;56.980;24.336;2022-08-19T04:52:40;11.95;;;5.88;;
28653;SDS011;24320;56.980;24.336;2022-08-19T04:55:09;17.13;;;6.13;;
28653;SDS011;24320;56.980;24.336;2022-08-19T04:57:37;12.90;;;6.40;;
28653;SDS011;24320;56.980;24.336;2022-08-19T05:00:07;12.35;;;6.22;;
28653;SDS011;24320;56.980;24.336;2022-08-19T05:02:36;17.38;;;6.90;;
28653;SDS011;24320;56.980;24.336;2022-08-19T05:05:04;12.68;;;7.30;;
28653;SDS011;24320;56.980;24.336;2022-08-19T05:07:33;11.40;;;6.78;;
28653;SDS011;24320;56.980;24.336;2022-08-19T05:10:00;12.63;;;6.38;;
28653;SDS011;24320;56.980;24.336;2022-08-19T05:12:27;9.38;;;5.28;;
28653;SDS011;24320;56.980;24.336;2022-08-19T05:14:55;11.55;;;5.90;;
28653;SDS011;24320;56.980;24.336;2022-08-19T05:17:24;11.10;;;6.10;;
28653;SDS011;24320;56.980;24.336;2022-08-19T05:19:56;8.73;;;6.00;;
28653;SDS011;24320;56.980;24.336;2022-08-19T05:22:42;9.18;;;6.25;;
28653;SDS011;24320;56.980;24.336;2022-08-19T05:25:12;9.27;;;6.30;;
28653;SDS011;24320;56.980;24.336;2022-08-19T05:27:41;13.23;;;6.13;;
28653;SDS011;24320;56.980;24.336;2022-08-19T05:30:09;10.23;;;6.10;;
28653;SDS011;24320;56.980;24.336;2022-08-19T05:32:38;10.30;;;6.00;;
28653;SDS011;24320;56.980;24.336;2022-08-19T05:35:05;11.73;;;5.93;;
28653;SDS011;24320;56.980;24.336;2022-08-19T05:37:33;8.85;;;6.03;;
28653;SDS011;24320;56.980;24.336;2022-08-19T05:40:00;8.63;;;5.78;;
28653;SDS011;24320;56.980;24.336;2022-08-19T05:42:28;9.93;;;6.20;;
28653;SDS011;24320;56.980;24.336;2022-08-19T05:44:55;10.95;;;5.97;;
28653;SDS011;24320;56.980;24.336;2022-08-19T05:47:23;11.48;;;6.07;;
28653;SDS011;24320;56.980;24.336;2022-08-19T05:49:50;11.82;;;6.18;;
28653;SDS011;24320;56.980;24.336;2022-08-19T05:52:17;16.85;;;6.50;;
28653;SDS011;24320;56.980;24.336;2022-08-19T05:54:51;15.32;;;6.22;;
28653;SDS011;24320;56.980;24.336;2022-08-19T05:59:50;6.72;;;5.25;;
28653;SDS011;24320;56.980;24.336;2022-08-19T06:02:27;8.73;;;5.75;;
28653;SDS011;24320;56.980;24.336;2022-08-19T06:04:57;7.38;;;6.10;;
28653;SDS011;24320;56.980;24.336;2022-08-19T06:07:24;10.32;;;5.85;;
28653;SDS011;24320;56.980;24.336;2022-08-19T06:09:51;11.27;;;5.90;;
28653;SDS011;24320;56.980;24.336;2022-08-19T06:12:29;8.60;;;5.57;;
28653;SDS011;24320;56.980;24.336;2022-08-19T06:15:04;13.43;;;6.10;;
28653;SDS011;24320;56.980;24.336;2022-08-19T06:17:38;8.48;;;6.15;;
28653;SDS011;24320;56.980;24.336;2022-08-19T06:20:06;14.20;;;5.70;;
28653;SDS011;24320;56.980;24.336;2022-08-19T06:22:41;10.32;;;5.70;;
28653;SDS011;24320;56.980;24.336;2022-08-19T06:25:31;8.57;;;5.70;;
28653;SDS011;24320;56.980;24.336;2022-08-19T06:27:58;11.90;;;6.32;;
28653;SDS011;24320;56.980;24.336;2022-08-19T06:30:41;7.30;;;5.20;;
28653;SDS011;24320;56.980;24.336;2022-08-19T06:33:08;8.93;;;5.63;;
28653;SDS011;24320;56.980;24.336;2022-08-19T06:35:38;13.27;;;5.97;;
28653;SDS011;24320;56.980;24.336;2022-08-19T06:38:06;7.97;;;5.57;;
28653;SDS011;24320;56.980;24.336;2022-08-19T06:40:35;11.05;;;5.57;;
28653;SDS011;24320;56.980;24.336;2022-08-19T06:43:04;11.70;;;5.68;;
28653;SDS011;24320;56.980;24.336;2022-08-19T06:48:04;6.72;;;5.30;;
28653;SDS011;24320;56.980;24.336;2022-08-19T06:50:33;15.75;;;5.38;;
28653;SDS011;24320;56.980;24.336;2022-08-19T06:53:04;10.63;;;5.30;;
28653;SDS011;24320;56.980;24.336;2022-08-19T06:55:32;9.45;;;5.43;;
28653;SDS011;24320;56.980;24.336;2022-08-19T06:58:01;12.40;;;5.63;;
28653;SDS011;24320;56.980;24.336;2022-08-19T07:00:30;11.68;;;6.97;;
28653;SDS011;24320;56.980;24.336;2022-08-19T07:03:02;11.88;;;6.22;;
28653;SDS011;24320;56.980;24.336;2022-08-19T07:05:39;17.45;;;6.55;;
28653;SDS011;24320;56.980;24.336;2022-08-19T07:08:11;9.75;;;6.13;;
28653;SDS011;24320;56.980;24.336;2022-08-19T07:10:41;8.25;;;5.85;;
28653;SDS011;24320;56.980;24.336;2022-08-19T07:13:09;11.25;;;6.28;;
28653;SDS011;24320;56.980;24.336;2022-08-19T07:15:37;11.80;;;6.20;;
28653;SDS011;24320;56.980;24.336;2022-08-19T07:18:05;12.50;;;6.25;;
28653;SDS011;24320;56.980;24.336;2022-08-19T07:20:32;10.25;;;6.00;;
28653;SDS011;24320;56.980;24.336;2022-08-19T07:22:59;9.88;;;6.00;;
28653;SDS011;24320;56.980;24.336;2022-08-19T07:25:32;16.60;;;6.45;;
28653;SDS011;24320;56.980;24.336;2022-08-19T07:27:59;10.00;;;5.70;;
28653;SDS011;24320;56.980;24.336;2022-08-19T07:30:26;10.27;;;6.60;;
28653;SDS011;24320;56.980;24.336;2022-08-19T07:32:54;11.50;;;6.10;;
28653;SDS011;24320;56.980;24.336;2022-08-19T07:35:22;7.30;;;5.40;;
28653;SDS011;24320;56.980;24.336;2022-08-19T07:37:49;12.07;;;6.47;;
28653;SDS011;24320;56.980;24.336;2022-08-19T07:40:16;22.92;;;6.50;;
28653;SDS011;24320;56.980;24.336;2022-08-19T07:42:43;14.27;;;5.78;;
28653;SDS011;24320;56.980;24.336;2022-08-19T07:45:10;9.88;;;5.90;;
28653;SDS011;24320;56.980;24.336;2022-08-19T07:47:39;8.82;;;5.78;;
28653;SDS011;24320;56.980;24.336;2022-08-19T07:50:17;12.77;;;6.30;;
28653;SDS011;24320;56.980;24.336;2022-08-19T07:52:46;12.50;;;6.75;;
28653;SDS011;24320;56.980;24.336;2022-08-19T07:55:17;11.30;;;6.40;;
28653;SDS011;24320;56.980;24.336;2022-08-19T07:58:07;10.30;;;6.00;;
28653;SDS011;24320;56.980;24.336;2022-08-19T08:00:34;9.70;;;5.88;;
28653;SDS011;24320;56.980;24.336;2022-08-19T08:03:02;6.93;;;5.05;;
28653;SDS011;24320;56.980;24.336;2022-08-19T08:05:29;10.23;;;5.78;;
28653;SDS011;24320;56.980;24.336;2022-08-19T08:08:14;9.60;;;5.95;;
28653;SDS011;24320;56.980;24.336;2022-08-19T08:11:00;6.97;;;5.22;;
28653;SDS011;24320;56.980;24.336;2022-08-19T08:13:32;10.27;;;5.50;;
28653;SDS011;24320;56.980;24.336;2022-08-19T08:16:01;9.75;;;5.15;;
28653;SDS011;24320;56.980;24.336;2022-08-19T08:18:29;14.88;;;5.20;;
28653;SDS011;24320;56.980;24.336;2022-08-19T08:20:57;13.80;;;6.03;;
28653;SDS011;24320;56.980;24.336;2022-08-19T08:23:25;9.18;;;6.00;;
28653;SDS011;24320;56.980;24.336;2022-08-19T08:25:53;11.00;;;5.72;;
28653;SDS011;24320;56.980;24.336;2022-08-19T08:28:23;10.45;;;5.35;;
28653;SDS011;24320;56.980;24.336;2022-08-19T08:30:55;12.52;;;5.75;;
28653;SDS011;24320;56.980;24.336;2022-08-19T08:33:24;11.27;;;5.78;;
28653;SDS011;24320;56.980;24.336;2022-08-19T08:36:03;10.20;;;5.95;;
28653;SDS011;24320;56.980;24.336;2022-08-19T08:38:31;13.27;;;5.10;;
28653;SDS011;24320;56.980;24.336;2022-08-19T08:41:51;9.20;;;5.30;;
28653;SDS011;24320;56.980;24.336;2022-08-19T08:43:54;7.03;;;5.10;;
28653;SDS011;24320;56.980;24.336;2022-08-19T08:49:02;14.30;;;5.43;;
28653;SDS011;24320;56.980;24.336;2022-08-19T08:54:13;9.43;;;5.10;;
28653;SDS011;24320;56.980;24.336;2022-08-19T08:56:44;7.57;;;4.68;;
28653;SDS011;24320;56.980;24.336;2022-08-19T08:59:16;8.52;;;5.13;;
28653;SDS011;24320;56.980;24.336;2022-08-19T09:01:58;10.45;;;4.75;;
28653;SDS011;24320;56.980;24.336;2022-08-19T09:04:26;11.70;;;5.35;;
28653;SDS011;24320;56.980;24.336;2022-08-19T09:13:42;11.65;;;3.92;;
28653;SDS011;24320;56.980;24.336;2022-08-19T09:16:07;8.65;;;4.32;;
28653;SDS011;24320;56.980;24.336;2022-08-19T09:18:53;8.18;;;4.35;;
28653;SDS011;24320;56.980;24.336;2022-08-19T09:21:25;14.40;;;4.38;;
28653;SDS011;24320;56.980;24.336;2022-08-19T09:23:58;7.40;;;3.88;;
28653;SDS011;24320;56.980;24.336;2022-08-19T09:26:28;7.63;;;4.53;;
28653;SDS011;24320;56.980;24.336;2022-08-19T09:29:18;12.73;;;4.82;;
28653;SDS011;24320;56.980;24.336;2022-08-19T09:31:48;9.30;;;4.15;;
28653;SDS011;24320;56.980;24.336;2022-08-19T09:34:15;6.88;;;4.55;;
28653;SDS011;24320;56.980;24.336;2022-08-19T09:36:47;9.35;;;4.35;;
28653;SDS011;24320;56.980;24.336;2022-08-19T09:39:20;10.95;;;3.88;;
28653;SDS011;24320;56.980;24.336;2022-08-19T09:41:47;9.93;;;4.35;;
28653;SDS011;24320;56.980;24.336;2022-08-19T09:44:16;10.85;;;5.10;;
28653;SDS011;24320;56.980;24.336;2022-08-19T09:46:44;10.02;;;4.05;;
28653;SDS011;24320;56.980;24.336;2022-08-19T09:49:14;19.08;;;4.35;;
28653;SDS011;24320;56.980;24.336;2022-08-19T09:51:43;11.50;;;4.20;;
28653;SDS011;24320;56.980;24.336;2022-08-19T09:54:16;6.85;;;4.30;;
28653;SDS011;24320;56.980;24.336;2022-08-19T09:56:50;5.10;;;3.78;;
28653;SDS011;24320;56.980;24.336;2022-08-19T09:59:20;6.13;;;4.38;;
28653;SDS011;24320;56.980;24.336;2022-08-19T10:01:47;6.82;;;3.90;;
28653;SDS011;24320;56.980;24.336;2022-08-19T10:04:14;6.70;;;4.45;;
28653;SDS011;24320;56.980;24.336;2022-08-19T10:06:47;8.10;;;3.80;;
28653;SDS011;24320;56.980;24.336;2022-08-19T10:09:19;6.18;;;4.32;;
28653;SDS011;24320;56.980;24.336;2022-08-19T10:12:01;9.00;;;4.07;;
28653;SDS011;24320;56.980;24.336;2022-08-19T10:16:59;5.82;;;4.05;;
28653;SDS011;24320;56.980;24.336;2022-08-19T10:19:44;7.65;;;4.00;;
28653;SDS011;24320;56.980;24.336;2022-08-19T10:22:21;7.05;;;4.20;;
28653;SDS011;24320;56.980;24.336;2022-08-19T10:24:51;4.97;;;4.13;;
28653;SDS011;24320;56.980;24.336;2022-08-19T10:27:18;7.57;;;4.40;;
28653;SDS011;24320;56.980;24.336;2022-08-19T10:29:45;6.47;;;4.70;;
28653;SDS011;24320;56.980;24.336;2022-08-19T10:32:14;11.75;;;4.72;;
28653;SDS011;24320;56.980;24.336;2022-08-19T10:34:41;8.00;;;4.38;;
28653;SDS011;24320;56.980;24.336;2022-08-19T10:37:14;9.98;;;3.97;;
28653;SDS011;24320;56.980;24.336;2022-08-19T10:39:54;6.13;;;4.57;;
28653;SDS011;24320;56.980;24.336;2022-08-19T10:42:21;11.85;;;5.30;;
28653;SDS011;24320;56.980;24.336;2022-08-19T10:44:48;8.65;;;4.82;;
28653;SDS011;24320;56.980;24.336;2022-08-19T10:47:17;6.70;;;4.75;;
28653;SDS011;24320;56.980;24.336;2022-08-19T10:49:56;8.13;;;4.97;;
28653;SDS011;24320;56.980;24.336;2022-08-19T10:52:43;5.18;;;4.20;;
28653;SDS011;24320;56.980;24.336;2022-08-19T10:55:16;9.88;;;4.47;;
28653;SDS011;24320;56.980;24.336;2022-08-19T10:58:13;10.27;;;4.43;;
28653;SDS011;24320;56.980;24.336;2022-08-19T11:01:32;7.88;;;4.22;;
28653;SDS011;24320;56.980;24.336;2022-08-19T11:04:01;6.38;;;4.50;;
28653;SDS011;24320;56.980;24.336;2022-08-19T11:06:33;10.85;;;4.80;;
28653;SDS011;24320;56.980;24.336;2022-08-19T11:09:00;8.40;;;4.43;;
28653;SDS011;24320;56.980;24.336;2022-08-19T11:11:29;7.32;;;4.82;;
28653;SDS011;24320;56.980;24.336;2022-08-19T11:13:56;12.15;;;5.28;;
28653;SDS011;24320;56.980;24.336;2022-08-19T11:16:25;9.88;;;4.90;;
28653;SDS011;24320;56.980;24.336;2022-08-19T11:18:54;9.30;;;4.75;;
28653;SDS011;24320;56.980;24.336;2022-08-19T11:21:30;6.05;;;4.43;;
28653;SDS011;24320;56.980;24.336;2022-08-19T11:24:00;8.75;;;4.85;;
28653;SDS011;24320;56.980;24.336;2022-08-19T11:26:32;11.10;;;5.20;;
28653;SDS011;24320;56.980;24.336;2022-08-19T11:29:00;6.55;;;5.13;;
28653;SDS011;24320;56.980;24.336;2022-08-19T11:31:29;13.70;;;5.20;;
28653;SDS011;24320;56.980;24.336;2022-08-19T11:33:58;6.43;;;4.43;;
28653;SDS011;24320;56.980;24.336;2022-08-19T11:36:27;8.53;;;4.73;;
28653;SDS011;24320;56.980;24.336;2022-08-19T11:38:55;38.20;;;7.32;;
28653;SDS011;24320;56.980;24.336;2022-08-19T11:41:22;6.05;;;4.40;;
28653;SDS011;24320;56.980;24.336;2022-08-19T11:43:50;11.18;;;5.00;;
28653;SDS011;24320;56.980;24.336;2022-08-19T11:46:22;11.65;;;5.60;;
28653;SDS011;24320;56.980;24.336;2022-08-19T11:48:51;10.45;;;4.82;;
28653;SDS011;24320;56.980;24.336;2022-08-19T11:51:19;11.30;;;5.35;;
28653;SDS011;24320;56.980;24.336;2022-08-19T11:53:51;13.95;;;5.57;;
28653;SDS011;24320;56.980;24.336;2022-08-19T11:56:22;7.32;;;5.72;;
28653;SDS011;24320;56.980;24.336;2022-08-19T11:58:50;10.32;;;5.95;;
28653;SDS011;24320;56.980;24.336;2022-08-19T12:01:19;10.70;;;5.45;;
28653;SDS011;24320;56.980;24.336;2022-08-19T12:03:48;12.07;;;5.80;;
28653;SDS011;24320;56.980;24.336;2022-08-19T12:06:18;7.63;;;4.93;;
28653;SDS011;24320;56.980;24.336;2022-08-19T12:08:49;8.13;;;5.20;;
28653;SDS011;24320;56.980;24.336;2022-08-19T12:11:16;8.20;;;4.32;;
28653;SDS011;24320;56.980;24.336;2022-08-19T12:13:57;7.38;;;4.53;;
28653;SDS011;24320;56.980;24.336;2022-08-19T12:16:26;5.18;;;4.22;;
28653;SDS011;24320;56.980;24.336;2022-08-19T12:18:55;8.27;;;3.90;;
28653;SDS011;24320;56.980;24.336;2022-08-19T12:21:24;7.32;;;4.18;;
28653;SDS011;24320;56.980;24.336;2022-08-19T12:23:56;11.70;;;3.78;;
28653;SDS011;24320;56.980;24.336;2022-08-19T12:26:25;6.82;;;3.65;;
28653;SDS011;24320;56.980;24.336;2022-08-19T12:28:53;10.70;;;4.30;;
28653;SDS011;24320;56.980;24.336;2022-08-19T12:31:21;4.85;;;4.00;;
28653;SDS011;24320;56.980;24.336;2022-08-19T12:33:48;12.00;;;3.75;;
28653;SDS011;24320;56.980;24.336;2022-08-19T12:36:15;8.68;;;3.95;;
28653;SDS011;24320;56.980;24.336;2022-08-19T12:38:44;5.95;;;4.07;;
28653;SDS011;24320;56.980;24.336;2022-08-19T12:41:11;8.02;;;3.78;;
28653;SDS011;24320;56.980;24.336;2022-08-19T12:43:44;12.25;;;3.80;;
28653;SDS011;24320;56.980;24.336;2022-08-19T12:46:12;9.90;;;3.90;;
28653;SDS011;24320;56.980;24.336;2022-08-19T12:48:42;11.90;;;4.10;;
28653;SDS011;24320;56.980;24.336;2022-08-19T12:51:12;8.82;;;3.85;;
28653;SDS011;24320;56.980;24.336;2022-08-19T12:53:42;8.25;;;3.95;;
28653;SDS011;24320;56.980;24.336;2022-08-19T12:56:10;8.55;;;3.70;;
28653;SDS011;24320;56.980;24.336;2022-08-19T12:58:38;6.50;;;4.28;;
28653;SDS011;24320;56.980;24.336;2022-08-19T13:01:06;4.90;;;4.18;;
28653;SDS011;24320;56.980;24.336;2022-08-19T13:06:16;6.95;;;3.63;;
28653;SDS011;24320;56.980;24.336;2022-08-19T13:08:54;5.47;;;4.10;;
28653;SDS011;24320;56.980;24.336;2022-08-19T13:11:24;14.95;;;4.22;;
28653;SDS011;24320;56.980;24.336;2022-08-19T13:13:52;10.77;;;4.20;;
28653;SDS011;24320;56.980;24.336;2022-08-19T13:16:21;11.53;;;4.50;;
28653;SDS011;24320;56.980;24.336;2022-08-19T13:18:48;11.07;;;4.00;;
28653;SDS011;24320;56.980;24.336;2022-08-19T13:21:18;12.05;;;3.92;;
28653;SDS011;24320;56.980;24.336;2022-08-19T13:23:48;5.03;;;3.88;;
28653;SDS011;24320;56.980;24.336;2022-08-19T13:26:16;8.88;;;4.45;;
28653;SDS011;24320;56.980;24.336;2022-08-19T13:28:44;12.73;;;4.38;;
28653;SDS011;24320;56.980;24.336;2022-08-19T13:31:30;8.32;;;3.97;;
28653;SDS011;24320;56.980;24.336;2022-08-19T13:34:19;13.20;;;4.15;;
28653;SDS011;24320;56.980;24.336;2022-08-19T13:37:00;9.07;;;4.30;;
28653;SDS011;24320;56.980;24.336;2022-08-19T13:39:31;9.48;;;3.90;;
28653;SDS011;24320;56.980;24.336;2022-08-19T13:42:00;8.48;;;4.28;;
28653;SDS011;24320;56.980;24.336;2022-08-19T13:44:28;5.95;;;4.03;;
28653;SDS011;24320;56.980;24.336;2022-08-19T13:47:05;5.18;;;3.75;;
28653;SDS011;24320;56.980;24.336;2022-08-19T13:49:34;10.30;;;4.60;;
28653;SDS011;24320;56.980;24.336;2022-08-19T13:52:03;10.40;;;4.25;;
28653;SDS011;24320;56.980;24.336;2022-08-19T13:54:31;10.07;;;4.20;;
28653;SDS011;24320;56.980;24.336;2022-08-19T13:56:58;8.93;;;3.95;;
28653;SDS011;24320;56.980;24.336;2022-08-19T13:59:25;12.20;;;4.32;;
28653;SDS011;24320;56.980;24.336;2022-08-19T14:01:52;11.55;;;4.57;;
28653;SDS011;24320;56.980;24.336;2022-08-19T14:04:24;10.45;;;4.38;;
28653;SDS011;24320;56.980;24.336;2022-08-19T14:06:51;9.88;;;4.10;;
28653;SDS011;24320;56.980;24.336;2022-08-19T14:09:18;9.75;;;4.90;;
28653;SDS011;24320;56.980;24.336;2022-08-19T14:11:45;9.10;;;4.28;;
28653;SDS011;24320;56.980;24.336;2022-08-19T14:14:12;9.07;;;4.65;;
28653;SDS011;24320;56.980;24.336;2022-08-19T14:16:41;6.10;;;4.30;;
28653;SDS011;24320;56.980;24.336;2022-08-19T14:19:09;9.25;;;4.90;;
28653;SDS011;24320;56.980;24.336;2022-08-19T14:24:15;13.13;;;5.20;;
28653;SDS011;24320;56.980;24.336;2022-08-19T14:26:42;8.43;;;4.00;;
28653;SDS011;24320;56.980;24.336;2022-08-19T14:29:09;12.38;;;4.53;;
28653;SDS011;24320;56.980;24.336;2022-08-19T14:31:36;10.93;;;4.80;;
28653;SDS011;24320;56.980;24.336;2022-08-19T14:34:03;8.07;;;4.57;;
28653;SDS011;24320;56.980;24.336;2022-08-19T14:36:31;6.63;;;4.47;;
28653;SDS011;24320;56.980;24.336;2022-08-19T14:39:04;6.60;;;4.40;;
28653;SDS011;24320;56.980;24.336;2022-08-19T14:41:32;8.27;;;4.88;;
28653;SDS011;24320;56.980;24.336;2022-08-19T14:43:59;6.85;;;4.05;;
28653;SDS011;24320;56.980;24.336;2022-08-19T14:46:27;10.57;;;4.57;;
28653;SDS011;24320;56.980;24.336;2022-08-19T14:48:55;11.65;;;5.05;;
28653;SDS011;24320;56.980;24.336;2022-08-19T14:51:25;12.98;;;4.63;;
28653;SDS011;24320;56.980;24.336;2022-08-19T14:53:55;8.52;;;5.20;;
28653;SDS011;24320;56.980;24.336;2022-08-19T14:56:24;15.35;;;5.07;;
28653;SDS011;24320;56.980;24.336;2022-08-19T14:58:52;12.57;;;5.40;;
28653;SDS011;24320;56.980;24.336;2022-08-19T15:01:21;7.75;;;5.13;;
28653;SDS011;24320;56.980;24.336;2022-08-19T15:03:49;9.70;;;5.20;;
28653;SDS011;24320;56.980;24.336;2022-08-19T15:06:19;11.60;;;5.28;;
28653;SDS011;24320;56.980;24.336;2022-08-19T15:08:48;9.63;;;5.25;;
28653;SDS011;24320;56.980;24.336;2022-08-19T15:11:18;20.98;;;6.65;;
28653;SDS011;24320;56.980;24.336;2022-08-19T15:13:47;7.30;;;5.30;;
28653;SDS011;24320;56.980;24.336;2022-08-19T15:16:15;12.73;;;5.65;;
28653;SDS011;24320;56.980;24.336;2022-08-19T15:18:44;13.65;;;5.95;;
28653;SDS011;24320;56.980;24.336;2022-08-19T15:21:13;10.98;;;5.30;;
28653;SDS011;24320;56.980;24.336;2022-08-19T15:23:53;9.85;;;6.10;;
28653;SDS011;24320;56.980;24.336;2022-08-19T15:26:21;10.40;;;5.75;;